Time;durP1;ratioP1;P1;durP2;ratioP2;P2;SDS_P1;SDS_P2;PMS_P1;PMS_P2;Temp;Humidity;BMP_temperature;BMP_pressure;BME280_temperature;BME280_humidity;BME280_pressure;Samples;Min_cycle;Max_cycle;Signal;HPM_P1;HPM_P2
2022/08/06 00:02:29;;;;;;;2.67;1.25;;;14.50;99.90;;;;;;5006354;28;20030;-75
2022/08/06 00:05:01;;;;;;;2.65;1.25;;;14.50;99.90;;;;;;5021452;28;20061;-76
2022/08/06 00:07:27;;;;;;;3.20;1.17;;;14.50;99.90;;;;;;5017923;28;20048;-76
2022/08/06 00:09:53;;;;;;;4.80;1.08;;;14.40;99.90;;;;;;5028860;28;20041;-76
2022/08/06 00:12:19;;;;;;;4.10;1.27;;;14.40;99.90;;;;;;5024715;28;20049;-76
2022/08/06 00:14:44;;;;;;;3.58;1.08;;;14.40;99.90;;;;;;5040190;28;20097;-76
2022/08/06 00:17:10;;;;;;;2.55;1.00;;;14.40;99.90;;;;;;5025443;28;20044;-76
2022/08/06 00:19:36;;;;;;;4.80;1.60;;;14.40;99.90;;;;;;5011494;28;20037;-76
2022/08/06 00:22:01;;;;;;;3.70;1.27;;;14.20;99.90;;;;;;5011627;28;20030;-76
2022/08/06 00:24:27;;;;;;;2.53;1.10;;;14.30;99.90;;;;;;5011704;28;20072;-76
2022/08/06 00:26:53;;;;;;;3.83;1.15;;;14.20;99.90;;;;;;5012742;28;20044;-76
2022/08/06 00:29:19;;;;;;;4.10;0.82;;;14.20;99.90;;;;;;5026289;28;20379;-75
2022/08/06 00:31:44;;;;;;;2.35;0.90;;;14.20;99.90;;;;;;5027788;28;20096;-76
2022/08/06 00:34:10;;;;;;;3.85;1.20;;;14.20;99.90;;;;;;5011641;28;20482;-76
2022/08/06 00:36:36;;;;;;;3.15;1.20;;;14.20;99.90;;;;;;4992217;28;20048;-76
2022/08/06 00:39:04;;;;;;;3.70;1.17;;;14.10;99.90;;;;;;4997234;28;20034;-75
2022/08/06 00:41:31;;;;;;;2.33;1.20;;;14.10;99.90;;;;;;5005130;28;20152;-76
2022/08/06 00:43:58;;;;;;;3.88;1.23;;;13.90;99.90;;;;;;5043896;28;20037;-76
2022/08/06 00:46:24;;;;;;;3.53;1.30;;;14.00;99.90;;;;;;5031461;28;20041;-76
2022/08/06 00:48:50;;;;;;;4.28;2.10;;;13.90;99.90;;;;;;5013240;28;20045;-76
2022/08/06 00:51:16;;;;;;;5.13;2.88;;;13.90;99.90;;;;;;5011244;28;20057;-76
2022/08/06 00:53:42;;;;;;;6.72;3.30;;;13.90;99.90;;;;;;5030007;28;20049;-76
2022/08/06 00:56:08;;;;;;;5.68;3.50;;;13.90;99.90;;;;;;5028103;28;20037;-76
2022/08/06 00:58:33;;;;;;;7.43;3.85;;;13.80;99.90;;;;;;5013467;28;20037;-76
2022/08/06 01:00:59;;;;;;;7.97;4.55;;;13.80;99.90;;;;;;5025851;28;20038;-76
2022/08/06 01:03:25;;;;;;;9.30;5.57;;;13.80;99.90;;;;;;5019247;28;20052;-76
2022/08/06 01:05:50;;;;;;;12.23;6.28;;;13.80;99.90;;;;;;5004138;28;20033;-76
2022/08/06 01:08:16;;;;;;;10.07;7.20;;;13.70;99.90;;;;;;4994990;28;20103;-76
2022/08/06 01:10:42;;;;;;;9.25;6.07;;;13.70;99.90;;;;;;5012884;28;20156;-76
2022/08/06 01:13:09;;;;;;;11.30;7.93;;;13.40;99.90;;;;;;5013594;28;20046;-76
2022/08/06 01:15:37;;;;;;;12.52;8.27;;;13.60;99.90;;;;;;4997800;28;20137;-76
2022/08/06 01:18:08;;;;;;;11.57;7.13;;;13.60;99.90;;;;;;5014529;28;20053;-76
2022/08/06 01:20:54;;;;;;;7.95;5.15;;;13.50;99.90;;;;;;5018606;28;20065;-76
2022/08/06 01:23:41;;;;;;;6.45;3.92;;;13.50;99.90;;;;;;5022792;28;20150;-76
2022/08/06 01:26:45;;;;;;;7.03;3.03;;;13.50;99.90;;;;;;5024486;28;20072;-76
2022/08/06 01:29:19;;;;;;;5.05;3.30;;;13.40;99.90;;;;;;5042563;28;20065;-76
2022/08/06 01:32:02;;;;;;;6.90;3.28;;;13.40;99.90;;;;;;5042641;28;20048;-76
2022/08/06 01:34:36;;;;;;;6.72;3.50;;;13.30;99.90;;;;;;5034271;28;20052;-76
2022/08/06 01:37:37;;;;;;;5.63;3.38;;;13.40;99.90;;;;;;5012819;28;20052;-76
2022/08/06 01:40:10;;;;;;;5.95;3.20;;;13.30;99.90;;;;;;5029173;28;20096;-75
2022/08/06 01:42:37;;;;;;;6.07;3.50;;;13.30;99.90;;;;;;5012453;28;20042;-76
2022/08/06 01:45:06;;;;;;;9.48;3.50;;;13.30;99.90;;;;;;5029443;28;20135;-76
2022/08/06 01:47:33;;;;;;;3.95;2.80;;;13.30;99.90;;;;;;5028835;28;20040;-76
2022/08/06 01:50:04;;;;;;;4.68;2.95;;;13.30;99.90;;;;;;5011197;28;20038;-76
2022/08/06 01:52:40;;;;;;;5.20;3.17;;;13.20;99.90;;;;;;5012790;28;20132;-76
2022/08/06 01:55:13;;;;;;;4.88;3.25;;;13.20;99.90;;;;;;5024793;28;20056;-76
2022/08/06 01:57:43;;;;;;;7.13;4.10;;;13.20;99.90;;;;;;5028043;28;20339;-76
2022/08/06 02:00:09;;;;;;;6.93;4.65;;;13.10;99.90;;;;;;5014776;28;20171;-75
2022/08/06 02:02:35;;;;;;;5.60;4.28;;;13.00;99.90;;;;;;5025613;28;20045;-75
2022/08/06 02:05:02;;;;;;;7.40;4.78;;;12.90;99.90;;;;;;5010151;28;20425;-76
2022/08/06 02:07:32;;;;;;;7.13;5.40;;;12.90;99.90;;;;;;5029145;28;20040;-76
2022/08/06 02:10:01;;;;;;;10.85;4.65;;;12.80;99.90;;;;;;5033993;28;20134;-76
2022/08/06 02:12:28;;;;;;;6.55;5.00;;;12.80;99.90;;;;;;5029048;28;20037;-76
2022/08/06 02:15:20;;;;;;;9.15;5.45;;;12.70;99.90;;;;;;5034662;28;20095;-75
2022/08/06 02:17:50;;;;;;;8.43;4.72;;;12.80;99.90;;;;;;5029621;28;20049;-77
2022/08/06 02:20:22;;;;;;;7.75;5.05;;;12.70;99.90;;;;;;5032215;28;20037;-77
2022/08/06 02:22:50;;;;;;;8.27;5.03;;;12.70;99.90;;;;;;5024646;28;20042;-77
2022/08/06 02:25:17;;;;;;;8.10;4.80;;;12.70;99.90;;;;;;5016572;28;20038;-77
2022/08/06 02:27:48;;;;;;;7.82;5.10;;;12.70;99.90;;;;;;5032600;28;20041;-75
2022/08/06 02:30:14;;;;;;;7.80;5.00;;;12.70;99.90;;;;;;5031773;28;20338;-75
2022/08/06 02:32:40;;;;;;;7.68;5.05;;;12.60;99.90;;;;;;4998871;28;20033;-75
2022/08/06 02:35:07;;;;;;;6.65;5.03;;;12.70;99.90;;;;;;5015383;28;20073;-77
2022/08/06 02:37:52;;;;;;;9.23;5.63;;;12.60;99.90;;;;;;5006402;28;20042;-77
2022/08/06 02:40:34;;;;;;;6.53;4.85;;;12.60;99.90;;;;;;5026538;28;20057;-77
2022/08/06 02:43:20;;;;;;;7.45;5.25;;;12.60;99.90;;;;;;5016726;28;20500;-77
2022/08/06 02:45:58;;;;;;;7.65;5.38;;;12.60;99.90;;;;;;5015979;28;20497;-77
2022/08/06 02:48:40;;;;;;;7.53;5.47;;;12.50;99.90;;;;;;5016432;28;20045;-77
2022/08/06 02:51:11;;;;;;;7.40;5.43;;;12.50;99.90;;;;;;5012775;28;20041;-77
2022/08/06 02:53:51;;;;;;;8.13;4.95;;;12.50;99.90;;;;;;5031860;28;20508;-78
2022/08/06 02:56:17;;;;;;;7.55;5.82;;;12.50;99.90;;;;;;5031834;28;20045;-77
2022/08/06 02:58:46;;;;;;;8.18;5.30;;;12.50;99.90;;;;;;5014628;28;20128;-78
2022/08/06 03:01:18;;;;;;;8.77;5.70;;;12.40;99.90;;;;;;5032348;28;20046;-77
2022/08/06 03:03:48;;;;;;;7.50;5.65;;;12.40;99.90;;;;;;5015053;28;20041;-77
2022/08/06 03:06:16;;;;;;;7.93;6.15;;;12.40;99.90;;;;;;5011980;28;20044;-77
2022/08/06 03:08:43;;;;;;;7.35;5.85;;;12.40;99.90;;;;;;5016706;28;20045;-78
2022/08/06 03:11:10;;;;;;;7.95;6.10;;;12.40;99.90;;;;;;5012712;28;20037;-77
2022/08/06 03:13:38;;;;;;;8.63;5.63;;;12.40;99.90;;;;;;5029423;28;20052;-77
2022/08/06 03:16:05;;;;;;;9.00;6.68;;;12.40;99.90;;;;;;5032767;28;20064;-77
2022/08/06 03:18:33;;;;;;;12.05;6.63;;;12.40;99.90;;;;;;5018951;28;20041;-77
2022/08/06 03:21:01;;;;;;;10.25;6.80;;;12.40;99.90;;;;;;5021248;28;20400;-76
2022/08/06 03:23:30;;;;;;;11.77;6.95;;;12.40;99.90;;;;;;5031191;28;20121;-77
2022/08/06 03:25:58;;;;;;;8.30;6.80;;;12.30;99.90;;;;;;5009615;28;20044;-77
2022/08/06 03:28:25;;;;;;;8.40;7.18;;;12.30;99.90;;;;;;5029026;28;20037;-77
2022/08/06 03:30:53;;;;;;;8.43;7.28;;;12.30;99.90;;;;;;5013426;28;20045;-77
2022/08/06 03:33:19;;;;;;;10.15;8.25;;;12.30;99.90;;;;;;5030235;28;20076;-77
2022/08/06 03:35:45;;;;;;;10.50;7.38;;;12.20;99.90;;;;;;5010160;28;20385;-77
2022/08/06 03:38:12;;;;;;;10.10;7.60;;;12.20;99.90;;;;;;5008308;28;20038;-77
2022/08/06 03:40:42;;;;;;;9.98;7.90;;;12.20;99.90;;;;;;5024797;28;20536;-77
2022/08/06 03:43:08;;;;;;;9.15;7.32;;;12.30;99.90;;;;;;5028160;28;20371;-77
2022/08/06 03:45:43;;;;;;;9.98;7.82;;;12.20;99.90;;;;;;5005307;28;20037;-77
2022/08/06 03:48:13;;;;;;;10.15;7.70;;;12.10;99.90;;;;;;5029571;28;20040;-77
2022/08/06 03:50:43;;;;;;;10.55;7.05;;;12.10;99.90;;;;;;5013582;28;20150;-77
2022/08/06 03:53:16;;;;;;;8.98;7.43;;;12.10;99.90;;;;;;5014582;28;20041;-77
2022/08/06 03:55:44;;;;;;;7.90;6.25;;;12.10;99.90;;;;;;5030982;28;20517;-77
2022/08/06 03:58:13;;;;;;;7.93;6.60;;;12.10;99.90;;;;;;5028179;28;20043;-77
2022/08/06 04:00:56;;;;;;;7.20;5.30;;;12.00;99.90;;;;;;5030189;28;20120;-77
2022/08/06 04:03:23;;;;;;;7.82;5.35;;;12.00;99.90;;;;;;5021567;28;20033;-77
2022/08/06 04:05:49;;;;;;;8.40;6.28;;;12.00;99.90;;;;;;5026656;28;20052;-77
2022/08/06 04:08:16;;;;;;;9.60;6.28;;;12.00;99.90;;;;;;5013900;28;20048;-76
2022/08/06 04:10:44;;;;;;;7.72;6.30;;;12.00;99.90;;;;;;4998757;28;20095;-78
2022/08/06 04:13:16;;;;;;;7.65;5.80;;;12.00;99.90;;;;;;5024776;28;20033;-77
2022/08/06 04:15:42;;;;;;;9.90;7.15;;;12.00;99.90;;;;;;5015426;28;20405;-77
2022/08/06 04:18:30;;;;;;;10.23;7.57;;;12.00;99.90;;;;;;5030901;28;20041;-77
2022/08/06 04:21:01;;;;;;;8.57;6.45;;;12.00;99.90;;;;;;5032048;28;20462;-77
2022/08/06 04:23:27;;;;;;;9.50;6.78;;;12.00;99.90;;;;;;5013750;28;20358;-77
2022/08/06 04:25:55;;;;;;;7.72;5.55;;;11.90;99.90;;;;;;5022004;28;20103;-77
2022/08/06 04:28:23;;;;;;;6.30;5.18;;;11.90;99.90;;;;;;5044921;28;20042;-77
2022/08/06 04:30:50;;;;;;;5.40;4.18;;;12.00;99.90;;;;;;5015587;28;20506;-77
2022/08/06 04:33:19;;;;;;;7.63;4.95;;;12.00;99.90;;;;;;5031042;28;20049;-76
2022/08/06 04:35:46;;;;;;;8.50;4.80;;;12.00;99.90;;;;;;5028681;28;20049;-77
2022/08/06 04:38:13;;;;;;;5.22;4.07;;;12.00;99.90;;;;;;5013793;28;20068;-77
2022/08/06 04:40:40;;;;;;;6.15;4.15;;;12.00;99.90;;;;;;5014569;28;20139;-77
2022/08/06 04:43:12;;;;;;;6.32;4.20;;;12.00;99.90;;;;;;5032097;28;20077;-77
2022/08/06 04:45:40;;;;;;;4.93;4.43;;;12.10;99.90;;;;;;5032635;28;20052;-77
2022/08/06 04:48:08;;;;;;;4.65;4.20;;;12.10;99.90;;;;;;5013511;28;20049;-77
2022/08/06 04:50:35;;;;;;;4.43;3.80;;;12.10;99.90;;;;;;5011157;28;20041;-77
2022/08/06 04:53:12;;;;;;;5.38;3.70;;;12.20;99.90;;;;;;5012725;28;20568;-77
2022/08/06 04:55:39;;;;;;;4.10;3.70;;;12.20;99.90;;;;;;5014300;28;20033;-77
2022/08/06 04:58:07;;;;;;;5.75;3.67;;;12.30;99.90;;;;;;5030600;28;20051;-77
2022/08/06 05:00:35;;;;;;;5.85;3.40;;;12.30;99.90;;;;;;5026881;28;20033;-77
2022/08/06 05:03:01;;;;;;;4.45;3.50;;;12.40;99.90;;;;;;5031871;28;20037;-77
2022/08/06 05:05:30;;;;;;;7.45;3.38;;;12.50;99.90;;;;;;5038327;28;20052;-77
2022/08/06 05:07:57;;;;;;;5.00;3.60;;;12.50;99.90;;;;;;5027274;28;20117;-77
2022/08/06 05:10:29;;;;;;;4.18;3.30;;;12.60;99.90;;;;;;5030320;28;20052;-77
2022/08/06 05:12:56;;;;;;;4.03;2.75;;;12.70;99.90;;;;;;5028981;28;20099;-77
2022/08/06 05:15:32;;;;;;;4.47;3.00;;;12.70;99.90;;;;;;5025547;28;20129;-77
2022/08/06 05:18:12;;;;;;;4.93;2.70;;;12.80;99.90;;;;;;5024962;28;20045;-77
2022/08/06 05:20:40;;;;;;;4.80;2.90;;;12.80;99.90;;;;;;5009754;28;20087;-77
2022/08/06 05:23:18;;;;;;;4.10;2.88;;;12.80;99.90;;;;;;5025898;28;20099;-76
2022/08/06 05:25:44;;;;;;;3.55;2.63;;;12.90;99.90;;;;;;5012594;28;20076;-77
2022/08/06 05:28:10;;;;;;;4.85;2.75;;;13.00;99.90;;;;;;4994549;28;20029;-76
2022/08/06 05:30:46;;;;;;;6.93;2.80;;;13.00;99.90;;;;;;5029882;28;20509;-77
2022/08/06 05:33:22;;;;;;;3.78;2.95;;;13.10;99.90;;;;;;5024274;28;20688;-77
2022/08/06 05:35:48;;;;;;;4.10;2.95;;;13.00;99.90;;;;;;5041472;28;20046;-77
2022/08/06 05:38:13;;;;;;;5.00;2.80;;;13.10;99.90;;;;;;5024246;28;20040;-77
2022/08/06 05:40:40;;;;;;;5.85;3.30;;;13.10;99.90;;;;;;5002147;28;20061;-77
2022/08/06 05:43:05;;;;;;;5.57;2.70;;;13.10;99.90;;;;;;5017402;28;20037;-77
2022/08/06 05:45:31;;;;;;;4.13;2.95;;;13.10;99.90;;;;;;5012802;28;20041;-77
2022/08/06 05:48:00;;;;;;;3.30;3.00;;;13.10;99.90;;;;;;5002067;28;20030;-77
2022/08/06 05:50:32;;;;;;;3.17;2.80;;;13.10;99.90;;;;;;5014159;28;20045;-77
2022/08/06 05:53:08;;;;;;;3.95;2.45;;;13.00;99.90;;;;;;5038055;28;20033;-77
2022/08/06 05:55:33;;;;;;;3.60;2.53;;;13.00;99.90;;;;;;5017898;28;20029;-77
2022/08/06 05:58:09;;;;;;;15.23;4.05;;;13.00;99.90;;;;;;5026168;28;20490;-78
2022/08/06 06:00:36;;;;;;;6.22;2.72;;;13.10;99.90;;;;;;5011324;28;20033;-77
2022/08/06 06:03:06;;;;;;;3.55;2.65;;;13.10;99.90;;;;;;5016934;28;20040;-77
2022/08/06 06:05:33;;;;;;;3.50;2.65;;;13.20;99.90;;;;;;5017350;28;20044;-77
2022/08/06 06:07:59;;;;;;;3.72;2.40;;;13.20;99.90;;;;;;5016336;28;20552;-77
2022/08/06 06:10:26;;;;;;;3.83;2.42;;;13.30;99.90;;;;;;5016702;28;20043;-77
2022/08/06 06:12:53;;;;;;;4.05;2.53;;;13.40;99.90;;;;;;4998957;28;20506;-77
2022/08/06 06:15:19;;;;;;;3.13;2.63;;;13.50;99.90;;;;;;5032188;28;20041;-77
2022/08/06 06:18:01;;;;;;;5.22;2.53;;;13.60;99.90;;;;;;5033625;28;20041;-77
2022/08/06 06:20:32;;;;;;;4.05;2.60;;;13.70;99.90;;;;;;5031076;28;20077;-77
2022/08/06 06:23:04;;;;;;;4.05;2.30;;;13.70;99.90;;;;;;5044069;28;20040;-79
2022/08/06 06:25:40;;;;;;;2.78;1.90;;;13.80;99.90;;;;;;5028555;28;20033;-77
2022/08/06 06:28:31;;;;;;;3.45;2.08;;;13.90;99.90;;;;;;5030018;28;20049;-77
2022/08/06 06:31:13;;;;;;;3.17;1.90;;;14.10;99.90;;;;;;5024853;28;21595;-77
2022/08/06 06:33:44;;;;;;;3.05;1.50;;;14.20;99.90;;;;;;5032460;28;20045;-77
2022/08/06 06:36:19;;;;;;;4.35;1.42;;;14.30;99.90;;;;;;5017278;28;20124;-77
2022/08/06 06:39:14;;;;;;;3.95;1.92;;;14.50;99.90;;;;;;5041911;28;20049;-78
2022/08/06 06:41:53;;;;;;;5.28;1.48;;;14.60;99.90;;;;;;5026616;28;20056;-78
2022/08/06 06:44:33;;;;;;;5.90;1.08;;;14.80;99.90;;;;;;5029599;28;20061;-77
2022/08/06 06:47:31;;;;;;;3.00;1.08;;;15.00;99.90;;;;;;5029689;28;20045;-77
2022/08/06 06:50:11;;;;;;;3.30;1.27;;;15.40;99.90;;;;;;4996247;28;20042;-77
2022/08/06 06:52:39;;;;;;;2.38;1.13;;;16.00;99.90;;;;;;5024905;28;20506;-77
2022/08/06 06:55:11;;;;;;;2.38;0.70;;;16.70;99.90;;;;;;5015979;28;20068;-77
2022/08/06 06:57:42;;;;;;;4.95;0.90;;;17.30;99.90;;;;;;5014769;28;20048;-77
2022/08/06 07:00:10;;;;;;;3.33;0.80;;;18.00;99.90;;;;;;5011235;28;20413;-77
2022/08/06 07:02:40;;;;;;;2.55;0.70;;;18.50;99.90;;;;;;4999981;28;20041;-77
2022/08/06 07:05:09;;;;;;;2.15;0.70;;;18.90;99.90;;;;;;5015999;28;20405;-77
2022/08/06 07:07:39;;;;;;;2.90;0.95;;;19.30;99.90;;;;;;5025945;28;20052;-77
2022/08/06 07:10:09;;;;;;;2.53;0.80;;;19.80;99.90;;;;;;5045366;28;20049;-78
2022/08/06 07:12:36;;;;;;;4.38;0.90;;;20.10;99.90;;;;;;5033522;28;20041;-77
2022/08/06 07:15:04;;;;;;;2.72;0.90;;;20.40;99.90;;;;;;5027088;28;20478;-78
2022/08/06 07:17:32;;;;;;;2.72;1.10;;;20.60;99.90;;;;;;5012221;28;20040;-77
2022/08/06 07:20:01;;;;;;;1.17;0.75;;;20.80;99.90;;;;;;5018626;28;20038;-77
2022/08/06 07:22:27;;;;;;;3.53;0.70;;;20.90;99.90;;;;;;5012449;28;20482;-76
2022/08/06 07:25:02;;;;;;;2.65;0.73;;;20.90;99.90;;;;;;5027983;28;20489;-76
2022/08/06 07:27:32;;;;;;;4.72;0.80;;;21.10;99.90;;;;;;5028045;28;20041;-77
2022/08/06 07:29:59;;;;;;;2.22;0.75;;;21.20;99.90;;;;;;5032911;28;20040;-76
2022/08/06 07:32:27;;;;;;;2.95;0.85;;;21.30;99.90;;;;;;5031164;28;20076;-77
2022/08/06 07:34:53;;;;;;;2.08;0.60;;;21.00;98.30;;;;;;5014401;28;20041;-76
2022/08/06 07:37:21;;;;;;;2.20;0.50;;;20.80;97.80;;;;;;5030752;28;20057;-76
2022/08/06 07:39:49;;;;;;;1.95;0.60;;;20.70;98.70;;;;;;5028520;28;20052;-77
2022/08/06 07:42:16;;;;;;;2.83;0.80;;;20.60;98.90;;;;;;5029504;28;20056;-76
2022/08/06 07:44:48;;;;;;;3.53;0.85;;;20.70;99.10;;;;;;5030328;28;20390;-76
2022/08/06 07:47:19;;;;;;;3.55;0.80;;;20.70;98.40;;;;;;5030295;28;20064;-76
2022/08/06 07:49:49;;;;;;;6.20;1.17;;;20.70;97.80;;;;;;5023935;28;20147;-76
2022/08/06 07:52:17;;;;;;;3.05;1.00;;;20.70;96.90;;;;;;5029722;28;20085;-76
2022/08/06 07:54:44;;;;;;;8.70;3.40;;;20.60;96.90;;;;;;5043154;28;20034;-76
2022/08/06 07:57:10;;;;;;;5.45;1.40;;;20.50;97.90;;;;;;5035508;28;20040;-76
2022/08/06 07:59:36;;;;;;;4.20;0.95;;;20.60;97.60;;;;;;4992510;28;20048;-76
2022/08/06 08:02:04;;;;;;;4.07;0.88;;;20.60;97.60;;;;;;5021699;28;20434;-76
2022/08/06 08:07:16;;;;;;;5.70;0.90;;;20.80;97.30;;;;;;5030987;28;20087;-76
2022/08/06 08:09:43;;;;;;;4.78;0.82;;;20.80;96.90;;;;;;4999444;28;20056;-77
2022/08/06 08:12:13;;;;;;;3.08;0.70;;;20.80;96.60;;;;;;5033401;28;20523;-77
2022/08/06 08:14:42;;;;;;;2.38;0.70;;;20.70;96.50;;;;;;5014963;28;20478;-75
2022/08/06 08:17:08;;;;;;;1.77;0.73;;;20.70;96.50;;;;;;5033190;28;20048;-76
2022/08/06 08:19:34;;;;;;;2.17;0.80;;;20.80;96.50;;;;;;5047865;28;20041;-76
2022/08/06 08:22:05;;;;;;;4.28;0.93;;;20.80;96.40;;;;;;5047703;28;20048;-76
2022/08/06 08:24:32;;;;;;;8.57;1.02;;;20.80;96.00;;;;;;5027745;28;20077;-75
2022/08/06 08:26:59;;;;;;;2.50;0.85;;;20.90;96.40;;;;;;5027604;28;20049;-77
2022/08/06 08:29:25;;;;;;;2.55;0.80;;;20.90;95.80;;;;;;5029988;28;21703;-77
2022/08/06 08:31:51;;;;;;;4.55;1.02;;;21.00;95.10;;;;;;5027405;28;20051;-75
2022/08/06 08:34:17;;;;;;;5.47;1.10;;;21.00;94.20;;;;;;5043478;28;20216;-75
2022/08/06 08:36:43;;;;;;;2.88;0.90;;;21.00;94.90;;;;;;5014272;28;20037;-76
2022/08/06 08:39:09;;;;;;;3.60;1.00;;;21.00;94.70;;;;;;5007475;28;20038;-76
2022/08/06 08:41:45;;;;;;;3.15;0.90;;;21.00;94.60;;;;;;5002650;28;20127;-76
2022/08/06 08:44:11;;;;;;;1.98;0.90;;;20.90;94.30;;;;;;5025711;28;20068;-76
2022/08/06 08:46:40;;;;;;;4.15;1.13;;;21.00;94.50;;;;;;5031550;28;20073;-77
2022/08/06 08:49:08;;;;;;;2.90;0.90;;;21.00;94.50;;;;;;5031732;28;20478;-76
2022/08/06 08:51:40;;;;;;;3.33;0.98;;;21.10;95.10;;;;;;5037199;28;20042;-77
2022/08/06 08:54:09;;;;;;;2.22;0.95;;;21.20;93.30;;;;;;5007910;28;20096;-76
2022/08/06 08:56:36;;;;;;;4.97;0.95;;;21.10;94.40;;;;;;5031373;28;20085;-76
2022/08/06 08:59:03;;;;;;;4.07;0.82;;;21.00;93.50;;;;;;5005218;28;20188;-76
2022/08/06 09:01:29;;;;;;;4.43;1.30;;;20.80;94.10;;;;;;5046413;28;20033;-76
2022/08/06 09:03:55;;;;;;;5.15;1.27;;;20.80;94.00;;;;;;4998011;28;20049;-76
2022/08/06 09:06:21;;;;;;;8.68;1.00;;;20.80;93.60;;;;;;5010560;28;20113;-76
2022/08/06 09:08:48;;;;;;;6.32;1.33;;;20.80;93.90;;;;;;5010973;28;20037;-76
2022/08/06 09:11:14;;;;;;;8.98;1.40;;;20.90;94.00;;;;;;5031600;28;20046;-76
2022/08/06 09:13:40;;;;;;;7.45;1.60;;;20.90;94.00;;;;;;5015931;28;20421;-77
2022/08/06 09:16:07;;;;;;;3.33;1.30;;;20.90;93.30;;;;;;5017257;28;20045;-76
2022/08/06 09:18:33;;;;;;;9.45;1.30;;;20.80;92.90;;;;;;5034821;28;20053;-77
2022/08/06 09:21:01;;;;;;;2.88;1.23;;;20.70;92.60;;;;;;5000266;28;20540;-76
2022/08/06 09:23:27;;;;;;;3.55;1.88;;;20.70;92.30;;;;;;5002143;28;20041;-76
2022/08/06 09:25:53;;;;;;;2.83;1.48;;;20.70;92.20;;;;;;5028153;28;20043;-76
2022/08/06 09:28:39;;;;;;;4.35;1.33;;;20.80;92.30;;;;;;5033675;28;20047;-77
2022/08/06 09:31:09;;;;;;;1.80;1.20;;;21.00;92.60;;;;;;5027671;28;20037;-76
2022/08/06 09:33:37;;;;;;;5.10;1.50;;;21.10;92.50;;;;;;5028467;28;20045;-76
2022/08/06 09:36:08;;;;;;;2.60;1.15;;;21.20;92.40;;;;;;5038873;28;20037;-76
2022/08/06 09:38:55;;;;;;;5.97;1.80;;;21.40;92.50;;;;;;5024869;28;20038;-76
2022/08/06 09:41:26;;;;;;;13.95;1.85;;;21.50;90.40;;;;;;5030880;28;20049;-76
2022/08/06 09:43:54;;;;;;;3.92;1.25;;;21.40;90.70;;;;;;5023592;28;20421;-76
2022/08/06 09:46:35;;;;;;;2.30;1.35;;;21.30;88.40;;;;;;5011280;28;20500;-76
2022/08/06 09:49:02;;;;;;;4.93;1.65;;;21.40;87.00;;;;;;5046542;28;20041;-76
2022/08/06 09:51:29;;;;;;;8.50;2.00;;;21.40;86.60;;;;;;5046357;28;20041;-76
2022/08/06 09:53:58;;;;;;;12.52;1.70;;;21.30;88.50;;;;;;5018004;28;20120;-76
2022/08/06 09:56:28;;;;;;;4.35;1.33;;;21.30;89.00;;;;;;5012135;28;20520;-76
2022/08/06 09:59:02;;;;;;;6.35;1.50;;;21.20;89.10;;;;;;5015561;28;20516;-75
2022/08/06 10:01:28;;;;;;;6.60;1.70;;;21.00;88.80;;;;;;5016838;28;20050;-76
2022/08/06 10:03:56;;;;;;;6.72;1.77;;;20.80;89.00;;;;;;5030001;28;20079;-76
2022/08/06 10:06:22;;;;;;;7.45;1.60;;;20.60;89.50;;;;;;5015519;28;20045;-77
2022/08/06 10:09:03;;;;;;;14.50;1.67;;;20.40;89.50;;;;;;5013812;28;20080;-77
2022/08/06 10:11:40;;;;;;;37.72;2.55;;;20.40;90.10;;;;;;5031095;28;20525;-77
2022/08/06 10:14:24;;;;;;;6.35;1.45;;;20.40;90.50;;;;;;5027454;28;20052;-76
2022/08/06 10:17:14;;;;;;;4.18;1.70;;;20.40;90.80;;;;;;5006541;28;20112;-76
2022/08/06 10:19:42;;;;;;;4.75;1.70;;;20.30;90.30;;;;;;5029803;28;20045;-76
2022/08/06 10:22:13;;;;;;;2.65;1.50;;;20.30;90.60;;;;;;5031205;28;20124;-77
2022/08/06 10:24:50;;;;;;;4.60;1.55;;;20.20;90.60;;;;;;5033480;28;20053;-77
2022/08/06 10:27:22;;;;;;;7.75;1.65;;;20.20;90.70;;;;;;5022099;28;20120;-75
2022/08/06 10:29:47;;;;;;;9.80;1.80;;;20.20;90.70;;;;;;5031971;28;20043;-77
2022/08/06 10:32:16;;;;;;;4.88;1.65;;;20.20;91.00;;;;;;5032561;28;20046;-77
2022/08/06 10:34:44;;;;;;;5.50;1.90;;;20.40;90.60;;;;;;5026704;28;20046;-77
2022/08/06 10:37:11;;;;;;;3.60;1.70;;;20.40;90.10;;;;;;5031236;28;20120;-76
2022/08/06 10:39:45;;;;;;;4.07;2.03;;;20.40;90.70;;;;;;5032325;28;20584;-76
2022/08/06 10:42:12;;;;;;;4.28;2.03;;;20.40;88.00;;;;;;5015651;28;20084;-76
2022/08/06 10:44:40;;;;;;;4.53;2.00;;;20.50;85.40;;;;;;5011017;28;20037;-76
2022/08/06 10:47:06;;;;;;;2.40;1.90;;;20.50;84.80;;;;;;5016258;28;20035;-78
2022/08/06 10:49:34;;;;;;;4.82;1.98;;;20.50;82.60;;;;;;4998727;28;20617;-77
2022/08/06 10:52:00;;;;;;;3.65;2.00;;;20.50;83.00;;;;;;5042879;28;20151;-79
2022/08/06 10:54:27;;;;;;;3.67;1.88;;;20.60;84.50;;;;;;5016758;28;20042;-78
2022/08/06 10:56:56;;;;;;;3.80;2.00;;;20.60;85.50;;;;;;5050386;28;20075;-80
2022/08/06 10:59:22;;;;;;;8.50;1.77;;;20.70;85.50;;;;;;4997816;28;20103;-77
2022/08/06 11:02:16;;;;;;;4.15;1.50;;;20.80;85.70;;;;;;5031721;28;20046;-77
2022/08/06 11:04:54;;;;;;;2.60;1.60;;;20.90;87.10;;;;;;5027133;28;20041;-77
2022/08/06 11:07:59;;;;;;;3.97;1.63;;;20.90;86.90;;;;;;5028511;28;20078;-77
2022/08/06 11:10:37;;;;;;;4.50;1.60;;;20.80;87.30;;;;;;5028191;28;20033;-77
2022/08/06 11:13:13;;;;;;;3.47;1.58;;;20.70;88.30;;;;;;5014422;28;20048;-77
2022/08/06 11:15:42;;;;;;;3.33;1.60;;;20.60;88.00;;;;;;5015716;28;20073;-77
2022/08/06 11:18:10;;;;;;;9.68;1.70;;;20.60;87.60;;;;;;5016806;28;20045;-77
2022/08/06 11:20:39;;;;;;;6.00;1.73;;;20.60;87.90;;;;;;5028271;28;20509;-77
2022/08/06 11:23:27;;;;;;;2.22;1.38;;;20.60;88.00;;;;;;5016228;28;20382;-78
2022/08/06 11:25:57;;;;;;;3.53;1.52;;;20.60;89.40;;;;;;5029552;28;20398;-77
2022/08/06 11:28:32;;;;;;;2.47;1.30;;;20.70;89.40;;;;;;5010041;28;20044;-77
2022/08/06 11:31:00;;;;;;;4.35;1.67;;;20.70;89.20;;;;;;5047724;28;20049;-77
2022/08/06 11:33:32;;;;;;;11.43;1.77;;;20.70;88.30;;;;;;5003000;28;20658;-77
2022/08/06 11:36:14;;;;;;;2.70;1.65;;;20.70;88.40;;;;;;5014847;28;20567;-77
2022/08/06 11:38:42;;;;;;;3.58;1.95;;;20.70;89.50;;;;;;5028954;28;20049;-77
2022/08/06 11:41:24;;;;;;;3.22;1.83;;;20.80;89.90;;;;;;5013511;28;20049;-77
2022/08/06 11:43:53;;;;;;;6.10;1.58;;;20.80;89.30;;;;;;5027278;28;20037;-77
2022/08/06 11:46:27;;;;;;;5.57;1.80;;;20.80;89.60;;;;;;5026755;28;20083;-77
2022/08/06 11:48:59;;;;;;;4.65;1.48;;;21.00;89.60;;;;;;5045291;28;20103;-76
2022/08/06 11:51:45;;;;;;;24.80;2.28;;;21.20;89.50;;;;;;5030675;28;20053;-77
2022/08/06 11:54:14;;;;;;;3.85;1.40;;;21.30;88.90;;;;;;5042836;28;20045;-77
2022/08/06 11:57:01;;;;;;;2.90;1.38;;;21.40;89.20;;;;;;5013615;28;20512;-78
2022/08/06 11:59:44;;;;;;;1.80;1.30;;;21.40;88.50;;;;;;5025581;28;20081;-78
2022/08/06 12:02:12;;;;;;;4.72;1.60;;;21.50;87.90;;;;;;5028329;28;20041;-78
2022/08/06 12:04:38;;;;;;;14.10;1.92;;;21.50;88.20;;;;;;5028944;28;20489;-77
2022/08/06 12:07:21;;;;;;;3.95;1.75;;;21.50;87.80;;;;;;5028762;28;20630;-77
2022/08/06 12:10:05;;;;;;;1.50;1.15;;;21.50;87.20;;;;;;5023027;28;20140;-77
2022/08/06 12:12:32;;;;;;;1.90;1.50;;;21.60;87.50;;;;;;5026810;28;20033;-77
2022/08/06 12:15:01;;;;;;;4.97;1.67;;;21.60;86.90;;;;;;5029540;28;20056;-78
2022/08/06 12:17:28;;;;;;;6.63;1.50;;;21.60;87.70;;;;;;5014356;28;20128;-76
2022/08/06 12:19:57;;;;;;;4.10;1.52;;;21.60;87.10;;;;;;5030356;28;20053;-76
2022/08/06 12:22:24;;;;;;;3.45;1.48;;;21.60;87.20;;;;;;5025614;28;20140;-76
2022/08/06 12:24:55;;;;;;;3.45;1.83;;;21.60;86.90;;;;;;5004043;28;20081;-76
2022/08/06 12:27:22;;;;;;;4.40;1.40;;;21.70;85.10;;;;;;5047326;28;20044;-76
2022/08/06 12:29:53;;;;;;;5.78;1.50;;;21.80;85.30;;;;;;5030718;28;20128;-77
2022/08/06 12:32:39;;;;;;;3.35;1.33;;;21.80;83.00;;;;;;5029463;28;20048;-77
2022/08/06 12:35:10;;;;;;;3.05;1.60;;;21.90;84.40;;;;;;5026312;28;20083;-77
2022/08/06 12:37:44;;;;;;;2.40;1.30;;;22.00;83.20;;;;;;5026555;28;20041;-77
2022/08/06 12:40:27;;;;;;;3.75;1.52;;;22.00;81.90;;;;;;5020709;28;20049;-77
2022/08/06 12:43:02;;;;;;;3.50;1.48;;;21.90;83.60;;;;;;5030013;28;20161;-78
2022/08/06 12:45:30;;;;;;;2.70;1.40;;;21.90;83.10;;;;;;5014324;28;20057;-78
2022/08/06 12:48:01;;;;;;;2.63;1.60;;;21.90;82.80;;;;;;4998010;28;20126;-78
2022/08/06 12:50:29;;;;;;;4.30;1.63;;;21.70;83.20;;;;;;5013413;28;20037;-78
2022/08/06 12:53:21;;;;;;;3.92;1.67;;;21.70;83.70;;;;;;5046022;28;20099;-77
2022/08/06 12:55:52;;;;;;;4.05;1.95;;;21.70;85.00;;;;;;5022463;28;20053;-78
2022/08/06 12:58:20;;;;;;;21.92;1.90;;;21.90;84.60;;;;;;5014495;28;20053;-78
2022/08/06 13:00:50;;;;;;;14.60;1.92;;;22.00;84.00;;;;;;5021282;28;20044;-77
2022/08/06 13:03:19;;;;;;;4.38;1.50;;;22.30;84.30;;;;;;5029163;28;20486;-77
2022/08/06 13:05:45;;;;;;;5.35;1.40;;;22.40;83.50;;;;;;5014353;28;20112;-78
2022/08/06 13:08:12;;;;;;;9.38;1.45;;;22.70;83.20;;;;;;5004439;28;20116;-78